This is the latest recevied weather packets stored in our database for station/object EA3IK-1. If no packets are shown the sender has not sent any weather packets the latest 1 day(s).
| Time | Temp. | Humidity | Pressure | Rain* | Wind** | Luminosity | Snow |
|---|---|---|---|---|---|---|---|
| 1778102298 | 14.44° C | 64% | 1013.4 hPa | 0 mm | - | - | - |
| 1778101397 | 14.44° C | 65% | 1013.2 hPa | 0 mm | - | - | - |
| 1778100496 | 15° C | 66% | 1013 hPa | 0 mm | - | - | - |
| 1778095992 | 15.56° C | 66% | 1011.8 hPa | 0 mm | - | - | - |
| 1778095091 | 16.11° C | 67% | 1011.5 hPa | 0 mm | - | - | - |
| 1778094190 | 16.11° C | 68% | 1011.4 hPa | 0 mm | - | - | - |
| 1778089686 | 17.78° C | 66% | 1010.3 hPa | 0 mm | - | - | - |
| 1778088785 | 18.33° C | 66% | 1010.2 hPa | 0 mm | - | - | - |
| 1778083380 | 20.56° C | 58% | 1009.5 hPa | 0 mm | - | - | - |
| 1778082479 | 22.78° C | 48% | 1009.4 hPa | 0 mm | - | - | - |
| 1778081578 | 22.78° C | 47% | 1009.5 hPa | 0 mm | - | - | - |
| 1778080677 | 23.33° C | 47% | 1009.6 hPa | 0 mm | - | - | - |
| 1778077074 | 22.78° C | 47% | 1010.1 hPa | 0 mm | - | - | - |
| 1778076173 | 22.22° C | 48% | 1010.2 hPa | 0 mm | - | - | - |
| 1778070768 | 22.78° C | 49% | 1010.9 hPa | 0 mm | - | - | - |
| 1778069867 | 22.22° C | 49% | 1011 hPa | 0 mm | - | - | - |
| 1778068065 | 21.67° C | 54% | 1011.1 hPa | 0 mm | - | - | - |
| 1778064462 | 20° C | 56% | 1011.6 hPa | 0 mm | - | - | - |
| 1778063561 | 20.56° C | 55% | 1011.8 hPa | 0 mm | - | - | - |
| 1778062660 | 19.44° C | 58% | 1012 hPa | 0 mm | - | - | - |
| 1778060858 | 17.78° C | 65% | 1012.3 hPa | 0 mm | - | - | - |
| 1778059057 | 17.22° C | 66% | 1012.6 hPa | 0 mm | - | - | - |
| 1778058156 | 16.11° C | 65% | 1012.6 hPa | 0 mm | - | - | - |
| 1778057255 | 15.56° C | 64% | 1012.6 hPa | 0 mm | - | - | - |
| 1778056354 | 14.44° C | 64% | 1012.5 hPa | 0 mm | - | - | - |
* Rain latest hour (hover to see other rain measurements)
** Current wind speed in m/s (hover to see current wind gust speed)